SCVD/ZAL METAR and TAF weather

Enter ICAO airport designator
Station Type Date Time Source
SCVD METAR 2020/09/21 07:00 UTC NOAA

SCVD 210700Z AUTO 05002KT 1000 R35/0800V1700U FG VV002 03/03 Q1018


Station Type Date Time Source
SCVD Decoded METAR 2020/09/21 07:00 UTC NOAA

Valdivia, Chile (SCVD) 39-37S 073-05W
Sep 21, 2020 - 03:00 AM EDT / 2020.09.21 0700 UTC
Wind: from the NE (050 degrees) at 2 MPH (2 KT) (direction variable):0
Visibility: less than 1 mile:0
Sky conditions: obscured
Weather: fog
Temperature: 37 F (3 C)
Dew Point: 37 F (3 C)
Relative Humidity: 100%
Pressure (altimeter): 30.06 in. Hg (1018 hPa)
ob: SCVD 210700Z AUTO 05002KT 1000 R35/0800V1700U FG VV002 03/03 Q1018
cycle: 7

Station Type Date Time Source
SCVD TAF 2020/09/20 12:00 UTC NOAA

TAF SCVD 201030Z 2012/2024 16005KT CAVOK TN00/2012Z TX19/2019Z

Example: see airport list